Time;durP1;ratioP1;P1;durP2;ratioP2;P2;SDS_P1;SDS_P2;PMS_P1;PMS_P2;Temp;Humidity;BMP_temperature;BMP_pressure;BME280_temperature;BME280_humidity;BME280_pressure;Samples;Min_cycle;Max_cycle;Signal;HPM_P1;HPM_P2
2022/06/07 00:02:03;;;;;;;17.90;13.70;;;;;;;20.39;100.00;99240.28;5015129;28;20615;-87
2022/06/07 00:04:28;;;;;;;17.70;13.70;;;;;;;19.64;100.00;99098.75;5014526;28;20166;-87
2022/06/07 00:06:54;;;;;;;19.80;14.70;;;;;;;19.41;100.00;99043.03;5015558;28;20174;-86
2022/06/07 00:09:19;;;;;;;18.47;14.33;;;;;;;20.37;100.00;99228.28;5002486;28;20212;-86
2022/06/07 00:11:44;;;;;;;22.83;14.80;;;;;;;20.38;100.00;99212.81;5039682;28;20173;-87
2022/06/07 00:14:10;;;;;;;19.47;15.10;;;;;;;19.21;100.00;99044.66;5043959;28;20252;-87
2022/06/07 00:16:36;;;;;;;24.37;14.80;;;;;;;20.27;100.00;99245.38;5037710;28;20537;-86
2022/06/07 00:19:01;;;;;;;20.43;14.50;;;;;;;19.17;100.00;99060.88;5035348;28;20172;-86
2022/06/07 00:21:29;;;;;;;20.40;14.77;;;;;;;19.87;100.00;99180.13;5035242;28;20245;-88
2022/06/07 00:23:55;;;;;;;20.23;15.40;;;;;;;20.46;100.00;99229.13;5034971;28;20157;-87
2022/06/07 00:26:21;;;;;;;22.97;15.83;;;;;;;20.39;100.00;99201.69;5034725;28;20248;-87
2022/06/07 00:28:46;;;;;;;19.73;15.10;;;;;;;17.53;100.00;98722.63;5034198;28;20228;-88
2022/06/07 00:31:12;;;;;;;20.90;14.23;;;;;;;20.11;100.00;99124.53;5034079;28;20245;-87
2022/06/07 00:33:38;;;;;;;21.57;14.60;;;;;;;19.84;100.00;99133.03;5035711;28;20304;-87
2022/06/07 00:36:04;;;;;;;20.63;14.80;;;;;;;19.20;100.00;99040.34;5035214;28;20225;-87
2022/06/07 00:38:30;;;;;;;21.80;14.83;;;;;;;19.83;100.00;99113.34;5022594;28;20196;-87
2022/06/07 00:40:56;;;;;;;18.97;13.73;;;;;;;20.51;100.00;99235.16;5019174;28;20216;-87
2022/06/07 00:43:23;;;;;;;20.97;13.43;;;;;;;18.73;100.00;98947.00;5040876;28;20236;-87
2022/06/07 00:45:49;;;;;;;20.70;14.00;;;;;;;20.37;100.00;99243.69;5040215;28;20627;-87
2022/06/07 00:48:15;;;;;;;16.20;12.93;;;;;;;19.61;100.00;99093.59;5039729;28;20158;-86
2022/06/07 00:50:52;;;;;;;18.57;12.93;;;;;;;18.90;100.00;98973.53;5040751;28;20216;-87
2022/06/07 00:53:30;;;;;;;20.13;13.07;;;;;;;20.05;100.00;99193.91;5040881;28;20173;-85
2022/06/07 00:55:56;;;;;;;17.00;12.97;;;;;;;18.67;100.00;98996.53;5039282;28;20166;-87
2022/06/07 00:58:23;;;;;;;19.73;12.70;;;;;;;19.57;100.00;99161.19;5039558;28;20562;-88
2022/06/07 01:00:48;;;;;;;17.13;11.63;;;;;;;19.29;100.00;99099.44;5039685;28;20240;-88
2022/06/07 01:03:14;;;;;;;15.07;11.90;;;;;;;19.63;100.00;99174.94;5040014;28;20158;-87
2022/06/07 01:05:40;;;;;;;19.07;12.57;;;;;;;20.08;100.00;99225.59;5024805;28;20345;-86
2022/06/07 01:10:53;;;;;;;21.40;15.50;;;;;;;20.07;100.00;99217.88;5044827;28;20177;-87
2022/06/07 01:13:23;;;;;;;19.27;14.80;;;;;;;20.18;100.00;99216.19;5041054;28;20253;-86
2022/06/07 01:15:49;;;;;;;20.30;15.20;;;;;;;18.79;100.00;98988.88;5041920;28;20166;-87
2022/06/07 01:18:16;;;;;;;20.90;15.13;;;;;;;19.20;100.00;99066.03;5040706;28;20164;-87
2022/06/07 01:20:42;;;;;;;22.53;13.87;;;;;;;18.77;100.00;98987.16;5020838;28;20181;-87
2022/06/07 01:23:08;;;;;;;21.20;16.33;;;;;;;19.92;100.00;99181.00;5038736;28;20623;-86
2022/06/07 01:25:34;;;;;;;20.87;14.50;;;;;;;18.60;100.00;98942.63;5020851;28;20210;-86
2022/06/07 01:28:00;;;;;;;16.87;13.07;;;;;;;16.71;100.00;98688.84;5040353;28;20281;-85
2022/06/07 01:30:25;;;;;;;17.67;13.60;;;;;;;19.88;100.00;99209.28;5040256;28;20660;-86
2022/06/07 01:32:52;;;;;;;17.43;13.50;;;;;;;19.86;100.00;99210.97;5020224;28;20174;-86
2022/06/07 01:35:17;;;;;;;17.13;13.40;;;;;;;16.84;100.00;98712.78;5019411;28;20173;-87
2022/06/07 01:37:43;;;;;;;16.93;12.57;;;;;;;19.98;100.00;99218.72;5020940;28;20177;-87
2022/06/07 01:42:53;;;;;;;18.90;14.23;;;;;;;19.16;100.00;99100.25;5037619;28;20219;-86
2022/06/07 01:45:19;;;;;;;19.83;15.80;;;;;;;19.84;100.00;99225.50;5037179;28;20253;-86
2022/06/07 01:47:45;;;;;;;23.07;16.23;;;;;;;19.17;100.00;99101.09;5038008;28;20146;-87
2022/06/07 01:50:10;;;;;;;20.23;14.47;;;;;;;18.84;100.00;99060.75;5037504;28;20192;-88
2022/06/07 01:52:36;;;;;;;22.43;15.03;;;;;;;17.85;100.00;98908.03;5036789;28;20241;-88
2022/06/07 01:55:04;;;;;;;20.87;14.30;;;;;;;18.08;100.00;98998.69;5037473;28;20192;-87
2022/06/07 01:57:29;;;;;;;20.70;14.10;;;;;;;18.00;100.00;99015.72;5019286;28;20184;-87
2022/06/07 01:59:55;;;;;;;17.47;14.30;;;;;;;18.65;100.00;99144.38;5036574;28;20221;-88
2022/06/07 02:02:24;;;;;;;22.33;14.90;;;;;;;18.04;100.00;99053.34;5041313;28;20158;-86
2022/06/07 02:04:50;;;;;;;23.20;15.53;;;;;;;18.82;100.00;99224.88;5048917;28;20146;-85
2022/06/07 02:07:18;;;;;;;20.87;14.43;;;;;;;18.65;100.00;99243.56;5044663;28;20614;-88
2022/06/07 02:09:44;;;;;;;20.50;14.93;;;;;;;18.13;100.00;99131.94;5023960;28;20669;-88
2022/06/07 02:12:10;;;;;;;18.90;14.03;;;;;;;19.05;100.00;99240.44;5021804;28;20244;-87
2022/06/07 02:14:35;;;;;;;21.63;13.37;;;;;;;16.13;100.00;98747.84;5020500;28;20170;-87
2022/06/07 02:17:01;;;;;;;20.93;14.20;;;;;;;17.80;100.00;99019.78;5037501;28;20164;-87
2022/06/07 02:19:26;;;;;;;19.00;13.30;;;;;;;19.18;100.00;99242.25;5037746;28;20177;-86
2022/06/07 02:21:52;;;;;;;20.13;13.53;;;;;;;17.05;100.00;98880.06;5036045;28;20170;-86
2022/06/07 02:24:17;;;;;;;18.97;14.20;;;;;;;19.03;100.00;99233.59;5036662;28;20166;-87
2022/06/07 02:26:48;;;;;;;21.23;13.30;;;;;;;16.68;100.00;98816.59;5038137;28;20558;-87
2022/06/07 02:29:25;;;;;;;20.13;14.23;;;;;;;19.08;100.00;99230.22;5039063;28;20193;-88
2022/06/07 02:32:00;;;;;;;21.27;13.83;;;;;;;19.47;100.00;99254.44;5039229;28;20154;-88
2022/06/07 02:34:26;;;;;;;19.83;13.80;;;;;;;17.53;100.00;98906.88;5038798;28;20165;-87
2022/06/07 02:36:55;;;;;;;18.17;13.70;;;;;;;16.53;100.00;98750.03;5021553;28;20594;-88
2022/06/07 02:39:21;;;;;;;16.03;12.90;;;;;;;18.53;100.00;99077.66;5021379;28;20151;-87
2022/06/07 02:41:48;;;;;;;17.07;12.80;;;;;;;19.20;100.00;99199.47;5023946;28;20174;-86
2022/06/07 02:44:14;;;;;;;17.73;12.90;;;;;;;17.50;100.00;98981.09;5033495;28;20167;-86
2022/06/07 02:46:39;;;;;;;18.87;13.37;;;;;;;18.45;100.00;99201.44;5032705;28;20169;-86
2022/06/07 02:49:04;;;;;;;20.63;13.83;;;;;;;18.29;100.00;99146.63;5006207;28;20194;-88
2022/06/07 02:51:30;;;;;;;21.90;13.27;;;;;;;19.26;100.00;99271.41;5019142;28;20249;-87
2022/06/07 02:53:56;;;;;;;21.23;13.40;;;;;;;16.10;100.00;98712.06;5020603;28;20163;-88
2022/06/07 02:56:22;;;;;;;19.67;13.63;;;;;;;18.13;100.00;99032.88;5021338;28;20171;-86
2022/06/07 02:58:48;;;;;;;22.03;14.30;;;;;;;17.98;100.00;98985.81;5020595;28;20218;-86
2022/06/07 03:01:13;;;;;;;19.97;14.03;;;;;;;19.65;100.00;99270.81;5020422;28;20166;-88
2022/06/07 03:03:39;;;;;;;20.97;13.17;;;;;;;19.64;100.00;99257.97;5019610;28;20194;-88
2022/06/07 03:06:04;;;;;;;26.07;12.97;;;;;;;18.69;100.00;99073.47;5017387;28;20177;-88
2022/06/07 03:08:30;;;;;;;23.73;13.03;;;;;;;18.04;100.00;99001.22;5020482;28;20194;-86
2022/06/07 03:10:57;;;;;;;23.37;13.40;;;;;;;19.68;100.00;99275.09;5021836;28;20163;-86
2022/06/07 03:13:22;;;;;;;23.27;12.60;;;;;;;19.63;100.00;99269.09;5022217;28;20221;-88
2022/06/07 03:15:48;;;;;;;23.50;13.00;;;;;;;19.66;100.00;99274.25;5022764;28;20171;-86
2022/06/07 03:18:13;;;;;;;18.47;12.53;;;;;;;18.88;100.00;99130.84;5019128;28;20171;-87
2022/06/07 03:20:40;;;;;;;21.27;13.10;;;;;;;19.73;100.00;99281.13;5016923;28;20584;-87
2022/06/07 03:23:07;;;;;;;18.43;12.37;;;;;;;19.07;100.00;99151.50;5017875;28;20166;-88
2022/06/07 03:25:41;;;;;;;22.30;12.97;;;;;;;19.28;100.00;99182.41;5094245;27;20553;-86
2022/06/07 03:28:06;;;;;;;29.50;13.90;;;;;;;19.53;100.00;99244.22;5093375;28;20176;-88
2022/06/07 03:30:32;;;;;;;24.23;13.13;;;;;;;19.46;100.00;99207.38;5102456;28;20182;-86
2022/06/07 03:32:58;;;;;;;19.57;12.33;;;;;;;19.75;100.00;99287.97;5096345;28;20168;-85
2022/06/07 03:35:24;;;;;;;21.07;13.67;;;;;;;17.80;100.00;98942.97;5091017;28;20261;-87
2022/06/07 03:37:49;;;;;;;24.90;14.60;;;;;;;19.01;100.00;99146.34;5093080;28;20302;-87
2022/06/07 03:40:42;;;;;;;23.77;14.07;;;;;;;19.13;100.00;99166.06;5094104;28;20532;-87
2022/06/07 03:43:02;;;;;;;23.30;14.47;;;;;;;17.58;100.00;98885.63;5097075;28;20167;-86
2022/06/07 03:45:28;;;;;;;24.70;14.90;;;;;;;19.68;100.00;99245.16;5097879;28;20196;-86
2022/06/07 03:47:54;;;;;;;24.83;14.67;;;;;;;17.90;100.00;98914.06;5093882;28;20164;-86
2022/06/07 03:50:19;;;;;;;20.87;14.70;;;;;;;18.80;100.00;99059.00;5092709;28;20243;-86
2022/06/07 03:52:45;;;;;;;25.17;14.37;;;;;;;18.07;100.00;98920.16;5091003;28;20168;-87
2022/06/07 03:55:11;;;;;;;19.87;13.93;;;;;;;19.51;100.00;99117.50;5090465;28;20168;-87
2022/06/07 03:57:37;;;;;;;26.37;14.10;;;;;;;18.84;100.00;98999.19;5095829;28;20156;-87
2022/06/07 04:00:06;;;;;;;24.83;14.60;;;;;;;20.06;100.00;99188.75;5094947;28;20167;-88
2022/06/07 04:02:32;;;;;;;25.93;13.67;;;;;;;20.11;100.00;99188.78;5091834;28;20164;-87
2022/06/07 04:04:57;;;;;;;27.00;14.07;;;;;;;19.43;100.00;99082.41;5091810;28;20199;-87
2022/06/07 04:10:07;;;;;;;24.93;15.17;;;;;;;19.16;100.00;99048.91;5092949;28;20171;-88
2022/06/07 04:12:33;;;;;;;23.20;14.80;;;;;;;19.83;100.00;99151.88;5088824;28;20633;-87
2022/06/07 04:14:58;;;;;;;28.03;15.93;;;;;;;18.10;100.00;98899.63;5090763;28;20243;-87
2022/06/07 04:17:24;;;;;;;23.40;15.63;;;;;;;20.03;100.00;99222.16;5090146;28;20187;-88
2022/06/07 04:19:49;;;;;;;25.77;15.57;;;;;;;18.35;100.00;98936.50;5090065;28;20168;-87
2022/06/07 04:22:15;;;;;;;26.20;16.03;;;;;;;18.10;100.00;98868.91;5091970;28;20595;-88
2022/06/07 04:24:40;;;;;;;26.20;15.87;;;;;;;18.57;100.00;98924.72;5090114;28;20655;-88
2022/06/07 04:27:06;;;;;;;25.13;15.90;;;;;;;19.27;100.00;99030.97;5092497;28;20168;-87
2022/06/07 04:29:31;;;;;;;26.93;15.80;;;;;;;19.30;100.00;98995.91;5093731;28;20180;-87
2022/06/07 04:31:57;;;;;;;25.93;15.77;;;;;;;20.90;100.00;99210.31;5094327;28;20168;-87
2022/06/07 04:34:23;;;;;;;21.93;15.43;;;;;;;20.86;100.00;99196.56;5091412;28;20257;-86
2022/06/07 04:36:48;;;;;;;26.70;16.00;;;;;;;20.50;100.00;99106.53;5080586;28;20173;-87
2022/06/07 04:39:14;;;;;;;29.00;15.60;;;;;;;19.74;100.00;98984.88;5080054;28;20200;-87
2022/06/07 04:41:40;;;;;;;23.90;14.73;;;;;;;20.07;100.00;99009.72;5080813;28;20161;-88
2022/06/07 04:44:06;;;;;;;24.93;15.87;;;;;;;21.97;100.00;99330.38;5081784;28;20204;-88
2022/06/07 04:46:32;;;;;;;21.43;14.90;;;;;;;20.43;100.00;99074.84;5081088;28;20270;-87
2022/06/07 04:48:57;;;;;;;20.17;13.70;;;;;;;20.48;100.00;99222.28;5094144;28;20161;-86
2022/06/07 04:51:27;;;;;;;23.97;15.10;;;;;;;19.87;100.00;99186.97;5094666;28;20250;-87
2022/06/07 04:53:53;;;;;;;23.50;15.40;;;;;;;18.93;100.00;99024.00;5082626;28;20176;-86
2022/06/07 04:56:22;;;;;;;26.93;15.37;;;;;;;18.37;100.00;98945.06;5082004;28;20165;-88
2022/06/07 04:58:48;;;;;;;22.63;15.17;;;;;;;19.24;100.00;99072.03;5081658;28;20164;-89
2022/06/07 05:01:23;;;;;;;21.30;15.70;;;;;;;17.42;100.00;98808.69;5080976;28;20180;-88
2022/06/07 05:03:49;;;;;;;22.33;15.87;;;;;;;16.32;100.00;98652.69;5080089;28;20196;-87
2022/06/07 05:06:17;;;;;;;26.83;16.93;;;;;;;18.01;100.00;98937.16;5080344;28;20728;-87
2022/06/07 05:08:43;;;;;;;25.13;16.53;;;;;;;17.41;100.00;98843.69;5081499;28;20164;-88
2022/06/07 05:11:08;;;;;;;24.87;16.67;;;;;;;18.25;100.00;98938.19;5084503;28;20165;-88
2022/06/07 05:13:34;;;;;;;24.50;16.40;;;;;;;17.27;100.00;98841.88;5083387;28;20175;-88
2022/06/07 05:15:59;;;;;;;23.73;16.33;;;;;;;17.95;100.00;98896.13;5084479;28;20185;-88
2022/06/07 05:18:25;;;;;;;22.47;15.60;;;;;;;18.71;100.00;98976.88;5084971;28;20157;-87
2022/06/07 05:20:50;;;;;;;25.00;16.53;;;;;;;20.97;100.00;99358.72;5087774;28;20168;-87
2022/06/07 05:23:16;;;;;;;26.57;16.00;;;;;;;21.38;100.00;99369.06;5086296;28;20168;-88
2022/06/07 05:25:56;;;;;;;23.83;15.40;;;;;;;21.45;100.00;99320.13;5087954;28;20192;-87
2022/06/07 05:28:22;;;;;;;18.23;14.07;;;;;;;21.35;100.00;99305.53;5081782;28;20196;-88
2022/06/07 05:30:47;;;;;;;23.43;15.60;;;;;;;18.91;100.00;98998.34;5035777;28;20186;-87
2022/06/07 05:33:13;;;;;;;22.77;14.87;;;;;;;18.17;100.00;98874.91;5037478;28;20216;-87
2022/06/07 05:35:38;;;;;;;24.37;15.63;;;;;;;18.30;100.00;98927.94;5034551;28;20253;-87
2022/06/07 05:38:04;;;;;;;24.17;16.50;;;;;;;20.08;100.00;99248.72;5034337;28;20166;-88
2022/06/07 05:40:29;;;;;;;21.93;16.23;;;;;;;20.13;100.00;99235.91;5033582;28;20177;-90
2022/06/07 05:42:55;;;;;;;23.17;17.37;;;;;;;19.13;100.00;99120.75;5034577;28;20634;-87
2022/06/07 05:45:20;;;;;;;26.03;16.83;;;;;;;17.58;100.00;98852.38;5035084;28;20210;-87
2022/06/07 05:47:46;;;;;;;22.43;15.87;;;;;;;20.02;100.00;99241.00;5037611;28;20174;-86
2022/06/07 05:50:11;;;;;;;21.50;15.10;;;;;;;19.38;100.00;99101.22;5037835;28;20278;-87
2022/06/07 05:52:40;;;;;;;24.90;15.23;;;;;;;18.46;100.00;98887.88;5043498;28;20233;-85
2022/06/07 05:55:07;;;;;;;21.73;15.57;;;;;;;19.72;100.00;99145.84;5037129;28;20174;-87
2022/06/07 05:57:34;;;;;;;23.23;16.40;;;;;;;20.44;100.00;99235.13;5032397;28;20663;-88
2022/06/07 06:00:00;;;;;;;19.77;14.30;;;;;;;18.81;100.00;99000.03;5033369;28;20216;-86
2022/06/07 06:02:25;;;;;;;20.33;12.97;;;;;;;20.37;100.00;99236.00;5033413;28;20181;-88
2022/06/07 06:04:51;;;;;;;19.63;13.83;;;;;;;19.57;100.00;99035.34;5034900;28;20198;-86
2022/06/07 06:07:17;;;;;;;16.30;12.23;;;;;;;21.59;100.00;99351.03;5052301;28;20646;-88
2022/06/07 06:12:40;;;;;;;19.07;14.00;;;;;;;20.71;100.00;99106.50;5019688;28;20277;-87
2022/06/07 06:15:05;;;;;;;16.53;13.07;;;;;;;20.36;100.00;99139.13;5014591;28;20174;-87
2022/06/07 06:17:31;;;;;;;15.87;11.80;;;;;;;19.77;100.00;98997.72;5012346;28;20567;-87
2022/06/07 06:19:56;;;;;;;15.80;11.67;;;;;;;21.07;100.00;99116.75;5012311;28;20178;-88
2022/06/07 06:22:22;;;;;;;17.90;10.93;;;;;;;20.16;100.00;98858.88;5014172;28;20217;-88
2022/06/07 06:24:47;;;;;;;15.40;10.90;;;;;;;21.37;100.00;98963.03;5013604;28;20266;-88
2022/06/07 06:27:13;;;;;;;16.33;10.67;;;;;;;20.09;100.00;98740.72;5014647;28;20214;-87
2022/06/07 06:29:38;;;;;;;12.63;8.97;;;;;;;20.49;100.00;98858.78;5014574;28;20201;-87
2022/06/07 06:32:04;;;;;;;12.80;8.10;;;;;;;20.45;100.00;98769.69;5014141;28;20174;-86
2022/06/07 06:34:30;;;;;;;13.77;9.30;;;;;;;21.68;100.00;98985.97;5013401;28;20221;-88
2022/06/07 06:36:57;;;;;;;11.73;8.90;;;;;;;22.07;100.00;98989.97;5012562;28;20202;-87
2022/06/07 06:39:23;;;;;;;10.37;8.90;;;;;;;21.08;100.00;98891.09;5001365;28;20242;-88
2022/06/07 06:41:49;;;;;;;16.00;9.50;;;;;;;22.33;100.00;99129.84;4996079;28;20201;-86
2022/06/07 06:44:15;;;;;;;10.63;9.00;;;;;;;21.87;100.00;98989.28;5012185;28;20230;-86
2022/06/07 06:46:43;;;;;;;15.27;9.10;;;;;;;23.37;100.00;99363.19;5012748;28;20194;-86
2022/06/07 06:49:11;;;;;;;13.57;9.17;;;;;;;22.24;100.00;99247.72;5034086;28;20198;-87
2022/06/07 06:51:37;;;;;;;11.50;8.33;;;;;;;19.72;100.00;98814.50;5036275;28;20193;-89
2022/06/07 06:54:04;;;;;;;13.57;8.90;;;;;;;22.51;100.00;99361.09;5036239;28;20185;-89
2022/06/07 06:56:31;;;;;;;13.80;8.33;;;;;;;22.76;100.00;99256.00;5036961;28;20205;-88
2022/06/07 06:58:58;;;;;;;16.33;7.83;;;;;;;23.04;100.00;99169.72;5035954;28;20552;-89
2022/06/07 07:01:27;;;;;;;8.80;7.53;;;;;;;23.82;100.00;99167.09;5036591;28;20201;-89
2022/06/07 07:03:53;;;;;;;10.70;7.30;;;;;;;24.80;100.00;99234.72;5036273;28;20256;-88
2022/06/07 07:06:20;;;;;;;13.67;8.13;;;;;;;25.15;100.00;99287.66;5037078;28;20170;-89
2022/06/07 07:08:47;;;;;;;13.77;7.70;;;;;;;25.80;70.99;99359.13;5030039;28;20186;-89
2022/06/07 07:11:20;;;;;;;9.07;7.00;;;;;;;24.40;72.43;99162.81;5030816;28;20208;-88
2022/06/07 07:13:47;;;;;;;10.80;6.93;;;;;;;25.02;71.48;99257.66;5034580;28;20184;-88
2022/06/07 07:16:17;;;;;;;12.17;7.43;;;;;;;24.03;72.37;99056.44;5036354;28;20172;-86
2022/06/07 07:18:42;;;;;;;8.97;6.83;;;;;;;23.11;72.90;99049.09;5033088;28;20178;-87
2022/06/07 07:21:13;;;;;;;7.80;6.80;;;;;;;24.05;74.66;99344.41;5036767;28;20256;-87
2022/06/07 07:23:39;;;;;;;12.03;7.17;;;;;;;24.65;73.16;99373.88;5035736;28;20221;-87
2022/06/07 07:26:08;;;;;;;13.40;6.80;;;;;;;23.68;70.89;99150.94;5036781;28;20251;-85
2022/06/07 07:28:35;;;;;;;10.53;6.90;;;;;;;23.22;69.86;98999.03;5039746;28;20193;-87
2022/06/07 07:31:03;;;;;;;6.83;5.97;;;;;;;25.63;69.61;99326.59;5034868;28;20220;-87
2022/06/07 07:33:28;;;;;;;7.83;6.50;;;;;;;24.33;69.47;99096.53;5038827;28;20263;-86
2022/06/07 07:35:54;;;;;;;12.37;7.00;;;;;;;23.78;68.13;99021.50;5043555;28;20170;-87
2022/06/07 07:38:20;;;;;;;9.30;6.43;;;;;;;24.49;68.01;99102.28;5044967;28;20185;-86
2022/06/07 07:40:46;;;;;;;9.30;6.30;;;;;;;23.71;67.00;98944.91;5037197;28;20177;-85
2022/06/07 07:43:12;;;;;;;9.10;6.53;;;;;;;23.32;67.00;98917.94;5034319;28;20197;-87
2022/06/07 07:45:37;;;;;;;9.52;7.55;;;;;;;26.01;65.98;99344.91;5034653;28;20221;-87
2022/06/07 07:48:03;;;;;;;8.25;6.70;;;;;;;24.56;65.90;99084.03;5035283;28;20194;-88
2022/06/07 07:50:29;;;;;;;10.48;7.03;;;;;;;25.34;63.92;99116.25;5034563;28;20172;-87
2022/06/07 07:52:57;;;;;;;10.70;7.13;;;;;;;23.89;62.95;98845.50;5035111;28;20197;-87
2022/06/07 07:55:23;;;;;;;10.20;7.20;;;;;;;23.31;62.49;98833.56;5035807;28;20176;-86
2022/06/07 07:57:49;;;;;;;10.30;7.05;;;;;;;24.96;64.06;99058.31;5034538;28;20173;-87
2022/06/07 08:00:14;;;;;;;8.68;6.85;;;;;;;25.73;63.72;99124.13;5031642;28;20172;-87
2022/06/07 08:02:40;;;;;;;12.38;7.60;;;;;;;25.45;61.78;99039.13;5048690;28;20173;-87
2022/06/07 08:05:06;;;;;;;10.40;7.43;;;;;;;27.38;61.38;99317.59;5033502;28;20622;-88
2022/06/07 08:07:32;;;;;;;8.63;7.13;;;;;;;26.27;60.43;99092.59;5033568;28;20177;-88
2022/06/07 08:10:00;;;;;;;9.65;7.38;;;;;;;27.05;59.96;99270.78;5034289;28;20250;-87
2022/06/07 08:12:26;;;;;;;11.85;7.03;;;;;;;27.08;60.97;99296.72;5037467;28;20171;-87
2022/06/07 08:14:52;;;;;;;10.27;7.80;;;;;;;26.98;57.79;99272.69;5046183;28;20165;-86
2022/06/07 08:17:18;;;;;;;12.07;7.55;;;;;;;26.88;58.13;99303.25;5041401;28;20217;-86
2022/06/07 08:19:43;;;;;;;9.90;6.82;;;;;;;26.21;56.47;99200.03;5036505;28;20219;-87
2022/06/07 08:22:09;;;;;;;7.75;6.65;;;;;;;26.02;55.42;99105.28;5036393;28;20235;-87
2022/06/07 08:24:36;;;;;;;8.60;6.70;;;;;;;25.51;55.40;98969.03;5035289;28;20630;-87
2022/06/07 08:27:02;;;;;;;9.65;6.13;;;;;;;27.62;54.37;99247.63;5036732;28;20170;-86
2022/06/07 08:29:28;;;;;;;6.43;5.53;;;;;;;28.01;52.47;99288.16;5036248;28;20573;-86
2022/06/07 08:31:53;;;;;;;7.45;5.32;;;;;;;28.02;53.44;99243.91;5037818;28;20222;-89
2022/06/07 08:39:47;;;;;;;8.07;5.65;;;;;;;26.94;52.11;99099.56;5037472;28;20172;-88
2022/06/07 08:42:19;;;;;;;7.80;5.60;;;;;;;26.84;52.87;99111.94;5038269;28;20173;-87
2022/06/07 08:45:07;;;;;;;6.30;5.13;;;;;;;26.98;50.53;99097.72;5039263;28;20229;-88
2022/06/07 08:47:32;;;;;;;8.05;5.47;;;;;;;28.34;50.99;99282.00;5038008;28;20210;-87
2022/06/07 08:50:02;;;;;;;7.32;5.28;;;;;;;26.11;49.62;98940.75;5038834;28;20172;-88
2022/06/07 08:52:33;;;;;;;6.85;4.85;;;;;;;26.33;50.28;98968.72;5038002;28;20201;-88
2022/06/07 08:55:01;;;;;;;7.50;4.30;;;;;;;27.55;51.06;99184.56;5038212;28;20178;-88
2022/06/07 08:57:37;;;;;;;4.82;4.38;;;;;;;28.43;50.19;99276.50;5041257;28;20243;-90
2022/06/07 09:00:23;;;;;;;5.63;4.75;;;;;;;28.77;49.79;99275.50;5042867;28;20175;-89
2022/06/07 09:03:13;;;;;;;6.75;4.95;;;;;;;28.79;49.67;99271.94;5041405;28;20180;-89
2022/06/07 09:05:39;;;;;;;6.55;5.10;;;;;;;28.43;49.59;99200.13;5037269;28;20558;-88
2022/06/07 09:08:05;;;;;;;7.63;5.40;;;;;;;27.43;48.37;99001.09;5042696;28;20188;-88
2022/06/07 09:13:22;;;;;;;4.38;3.97;;;;;;;28.38;47.39;99205.47;5040533;28;20196;-89
2022/06/07 09:15:50;;;;;;;5.20;4.10;;;;;;;28.07;48.20;99173.50;5040234;28;20317;-88
2022/06/07 09:18:19;;;;;;;6.18;4.50;;;;;;;28.90;48.46;99253.38;5039919;28;20204;-87
2022/06/07 09:20:50;;;;;;;5.20;3.92;;;;;;;28.48;48.04;99201.69;5040000;28;20174;-89
2022/06/07 09:23:27;;;;;;;5.85;4.75;;;;;;;28.76;47.69;99250.34;5040196;28;20174;-89
2022/06/07 09:25:56;;;;;;;6.03;4.65;;;;;;;28.54;47.29;99245.75;5041136;28;20177;-88
2022/06/07 09:28:29;;;;;;;8.05;4.93;;;;;;;27.46;49.99;99187.41;5041472;28;20196;-88
2022/06/07 09:31:08;;;;;;;5.55;4.53;;;;;;;28.45;48.05;99235.66;5038622;28;20185;-88
2022/06/07 09:33:49;;;;;;;8.38;4.80;;;;;;;27.60;48.27;99093.38;5037529;28;20176;-87
2022/06/07 09:36:20;;;;;;;5.60;4.50;;;;;;;28.85;46.80;99239.59;5036811;28;20204;-90
2022/06/07 09:38:55;;;;;;;5.13;4.63;;;;;;;28.95;46.79;99222.78;5036945;28;20659;-89
2022/06/07 09:41:36;;;;;;;7.47;4.40;;;;;;;28.90;46.72;99230.72;5037393;28;20174;-88
2022/06/07 09:44:26;;;;;;;6.18;5.53;;;;;;;28.36;46.74;99142.16;5037379;28;20284;-88
2022/06/07 09:47:02;;;;;;;7.47;5.10;;;;;;;29.18;46.71;99228.06;5070576;28;20669;-90
2022/06/07 09:49:34;;;;;;;7.50;5.63;;;;;;;28.23;45.83;99080.97;5052512;28;20630;-88
2022/06/07 09:52:12;;;;;;;7.25;5.20;;;;;;;28.70;47.74;99154.13;5036756;28;20173;-87
2022/06/07 09:54:41;;;;;;;6.53;5.32;;;;;;;28.79;46.85;99180.72;5035469;28;20181;-87
2022/06/07 09:57:23;;;;;;;6.82;5.32;;;;;;;28.04;46.42;98975.75;5036108;28;20649;-88
2022/06/07 09:59:54;;;;;;;6.80;5.38;;;;;;;29.36;46.31;99205.75;5036816;28;20277;-87
2022/06/07 10:02:47;;;;;;;7.13;4.90;;;;;;;28.93;46.91;99199.34;5036409;28;20647;-88
2022/06/07 10:05:15;;;;;;;7.15;5.35;;;;;;;29.34;47.46;99192.72;5036400;28;20237;-89
2022/06/07 10:08:10;;;;;;;5.47;4.97;;;;;;;27.96;45.71;98916.09;5036117;28;20171;-88
2022/06/07 10:10:57;;;;;;;5.97;4.70;;;;;;;29.37;46.91;99182.19;5038924;28;20169;-89
2022/06/07 10:13:41;;;;;;;5.07;4.47;;;;;;;28.90;46.71;99183.81;5037716;28;20261;-88
2022/06/07 10:16:17;;;;;;;5.57;4.68;;;;;;;28.40;46.38;99180.25;5036394;28;20203;-87
2022/06/07 10:19:11;;;;;;;9.00;4.93;;;;;;;27.45;46.83;98977.63;5037430;28;20166;-89
2022/06/07 10:22:16;;;;;;;5.25;4.40;;;;;;;28.16;47.45;99151.50;5034954;28;20282;-89
2022/06/07 10:24:54;;;;;;;8.25;4.70;;;;;;;27.55;48.40;99162.88;5036694;28;20217;-89
2022/06/07 10:27:42;;;;;;;5.85;4.70;;;;;;;27.23;49.45;99161.13;5038917;28;20197;-89
2022/06/07 10:30:19;;;;;;;5.70;4.80;;;;;;;27.32;48.66;99156.53;5045684;28;20273;-89
2022/06/07 10:32:57;;;;;;;5.35;4.60;;;;;;;27.78;48.39;99157.84;5079613;28;20241;-89
2022/06/07 10:35:28;;;;;;;5.50;4.85;;;;;;;27.28;47.14;98990.25;5039192;28;20169;-85
2022/06/07 10:38:19;;;;;;;6.55;5.20;;;;;;;27.73;46.58;99012.31;5042363;28;20177;-90
2022/06/07 10:41:02;;;;;;;6.15;4.78;;;;;;;28.62;47.63;99152.59;5036759;28;20229;-88
2022/06/07 10:43:42;;;;;;;5.22;4.68;;;;;;;27.84;45.71;98915.66;5035931;28;20178;-88
2022/06/07 10:46:14;;;;;;;7.97;5.05;;;;;;;27.94;46.40;98949.13;5036540;28;20270;-89
2022/06/07 10:48:44;;;;;;;5.32;4.70;;;;;;;27.26;48.02;98947.88;5036070;28;20573;-87
2022/06/07 10:54:25;;;;;;;4.68;4.28;;;;;;;28.98;46.23;99129.66;5036662;28;20616;-88
2022/06/07 10:57:09;;;;;;;7.47;4.88;;;;;;;29.33;46.82;99124.97;5035301;28;20193;-88
2022/06/07 10:59:37;;;;;;;5.65;5.15;;;;;;;28.01;46.07;99007.91;5034941;28;20168;-88
2022/06/07 11:02:20;;;;;;;7.25;5.28;;;;;;;27.94;46.43;98943.06;5035768;28;20169;-88
2022/06/07 11:10:37;;;;;;;6.82;5.45;;;;;;;28.45;47.28;99079.38;5036199;28;20176;-88
2022/06/07 11:13:49;;;;;;;7.13;5.50;;;;;;;28.37;46.84;99031.91;5036990;28;20201;-88
2022/06/07 11:16:17;;;;;;;5.63;5.07;;;;;;;29.13;46.88;99096.97;5032927;28;20190;-88
2022/06/07 11:18:43;;;;;;;7.65;5.35;;;;;;;28.52;45.85;98936.72;5033776;28;20228;-88
2022/06/07 11:21:10;;;;;;;6.43;5.20;;;;;;;29.96;45.10;99096.47;5035394;28;20170;-88
2022/06/07 11:23:43;;;;;;;7.07;5.07;;;;;;;29.92;43.69;99092.28;5032115;28;20685;-88
2022/06/07 11:26:14;;;;;;;10.57;5.53;;;;;;;28.26;44.57;98867.38;5015746;28;20228;-88
2022/06/07 11:28:39;;;;;;;5.20;4.70;;;;;;;29.31;45.05;99088.50;5048932;28;20657;-89
2022/06/07 11:31:23;;;;;;;5.35;4.47;;;;;;;29.67;43.20;99089.72;5032672;28;20266;-87
2022/06/07 11:33:51;;;;;;;5.07;4.57;;;;;;;29.54;43.68;99083.28;5032182;28;20173;-89
2022/06/07 11:36:27;;;;;;;6.25;4.63;;;;;;;29.54;45.15;99082.44;5032759;28;20181;-87
2022/06/07 11:38:58;;;;;;;5.32;4.82;;;;;;;30.38;43.20;99075.63;5016055;28;20189;-89
2022/06/07 11:41:38;;;;;;;5.45;4.40;;;;;;;30.12;43.04;99076.66;5031738;28;20538;-88
2022/06/07 11:44:12;;;;;;;4.60;4.13;;;;;;;29.95;45.37;99080.84;5031858;28;20290;-89
2022/06/07 11:46:57;;;;;;;4.50;4.10;;;;;;;31.01;40.61;99071.19;5036080;28;20210;-88
2022/06/07 11:52:13;;;;;;;5.28;4.15;;;;;;;33.14;33.04;99079.97;5036923;28;20261;-89
2022/06/07 11:54:44;;;;;;;4.75;3.80;;;;;;;34.13;32.05;99072.75;5036978;28;20174;-88
2022/06/07 11:57:31;;;;;;;5.22;3.72;;;;;;;31.87;31.15;98670.00;5035320;28;20197;-89
2022/06/07 11:59:58;;;;;;;5.20;3.90;;;;;;;34.66;30.15;99060.91;5036264;28;20174;-88